Terminal Aerodrome Forecast
Issued by NWS Norman, OK

Home | Current Version | Previous Version | Text Only | Print | Product List | Glossary On
Versions: 1 2 3 4 5 6 7 8 9 10 11 12 13 14
000
FTUS44 KOUN 191132
TAFOKC
TAF
KOKC 191132Z 1912/2012 15010KT 2SM BR OVC005
      TEMPO 1912/1915 1/2SM FG VV002
     FM191700 16013KT 5SM BR OVC015
     FM200200 16010KT 4SM -SHRA BR OVC008
      TEMPO 2002/2006 2SM TSRA SCT008 OVC015CB
     FM201000 18008KT P6SM SCT030 BKN100
      TEMPO 2010/2012 5SM -SHRA BR BKN030=

USA.gov is the U.S. government's official web portal to all federal, state and local government web resources and services.